1B5 weather

Franconia Airport
Franconia, New Hampshire, United States

Public forecast

Using degrees Fahrenheit for public forecast. Weather courtesy of forecast.io.

Closest aviation weather report (METAR) to Franconia Airport

Closest report is Mount Washington Regional Airport, 13.6 nm (25.1 km) NE. Retrieved 2020/02/17 14:52 UTC (13 minutes ago):

KHIE 171452Z AUTO 29012KT 10SM OVC035 M04/M12 A3017 RMK AO2 SLP232 T10441117 51026

Closest aviation forecast (TAF) to Franconia Airport

Closest forecast is Mount Washington Regional Airport, 13.6 nm (25.1 km) NE. Retrieved 2020/02/17 12:36 UTC (2 hours ago):

TAF KHIE 171132Z 1712/1812 28004KT P6SM VCSH SCT015 SCT030 FM171600 29008KT P6SM FEW035 FM172300 00000KT P6SM SKC